Strona główna
METAR-TAF:

METAR-TAF

Lotnisko :

Uppsala, Szwecja

Szerokość geograficzna: 59-53N, Długość geograficzna: 017-36E, wysokość: 21 m

Aktualna obserwacja pogody

Raport powstał 36 minut temu, godzina 11:50 UTC
Wiatr 18 kt od zachodnio-północny zachód
Temperatura 6°C
Wilgotność 42%
Ciśnienie 992 hPa
Widzialność 10 km lub więcej

METAR: ESCM 031150Z AUTO 30018KT 9999 FEW062/// 06/M06 Q0992

czas: 14:26 (12:26 UTC)

Prognoza

Raport powstał 6 godziny i 26 minut temu, godzina 06:00 UTC
Prognoza ważna od 03 godzina 06 UTC do 03 godzina 10 UTC
Wiatr 20 kt od zachodnio-północny zachód w porywach dochodzący do 30 kt
Widzialność 10 km lub więcej
Przerywane chmury na wysokości 4000 ft
Prawdopodobieństwo 30%
od 03 godzina 06 UTC do 03 godzina 08 UTC
Widzialność: 1500 m
na wysokości 1000 ft
śnieg

TAF: ESCM 030600Z 0306/0310 29020G30KT 9999 BKN040 PROB30 0306/0308 1500 SN VV010

Obserwacja i prognoza pogody dla ponad 4000 lotnisk (raport METAR i TAF).

Dostępne stacje oznaczono żółtymi i czerwonymi punktami na mapie.

Najedź kursorem aby zobaczyć nazwę stacji.

Kliknij aby zobaczyć obserwacje i prognozy pogody.

Aby zmienić mapę: kliknij na zielony przycisk z czarnym krzyżykiem, aby powiększyć; na zielony przycisk z myślnikiem, aby pomniejszyć; na zielone strzałki, aby przejść do map sąsiednich.


METAR-TAF: